WFLO2: Webbers Falls Lock & Dam & Reservoir (L&D 16)

Data processed at Thu Nov 09 2017 15:31


All information presented herein is the property of the government of the United States of America and may be revised or deleted at any time without prior notice.
Dissemination of this information without the expressed written consent of the Public Affairs Office, Tulsa District U.S. Army Corps of Engineers is strictly prohibited.
These data are gathered electronically and, as presented, have not undergone any form of quality control. These data are not guaranteed to be valid or correct.
Go to home page.
Go to station list.

Upstream stations:

Downstream station:
Previous Day
Next Day
Current Day
    
SHEF ID:       WFLO2     Webbers Falls Lock & Dam
STATION TYPE:  NAVIGATION LOCK
Normal Pool:  Bottom =   487.00, Top =   490.00

               PRECIP ELEVATION   STORAGE   TW-ELEV    INFLOW   RELEASE  AIR-TEMP  WIND-DIRWIND-SPEED REL-HUMID SOLAR-RAD   VOLTAGE  BAT-LOAD
                   in        ft     ac-ft        ft       cfs       cfs         F       deg       mph         %      W/m2      volt      volt
              Ccp-Rev   Ccp-Rev   Ccp-Rev   Ccp-Rev  Regi-Rev  Regi-Rev   Ccp-Rev   Ccp-Rev   Ccp-Rev   Ccp-Rev   Ccp-Rev   Ccp-Rev   Ccp-Rev
(US/Central)
11/08 00:00      0.00    489.85    168404    459.44      2201         0     43.29    351.00      5.60     88.44      0.00     13.51     13.29
11/08 01:00      0.00    489.87    168632    459.37      3118         0     43.57    350.20      5.40     89.02      0.00     13.51     13.29
11/08 02:00      0.00    489.90    168973    459.37      2843         0     43.54    347.90      5.90     86.24      0.00     13.51     13.29
11/08 03:00      0.00    489.95    169541    459.52      2568         0     43.43    352.10      4.10     83.70      0.00     13.51     13.29
11/08 04:00      0.00    489.99    169996    459.56      2018         0     43.57    346.90      6.20     82.90      0.00     13.51     13.29
11/08 05:00      0.00    489.97    169769    459.48      3533         0     43.05    352.20      3.60     83.49      0.00     13.51     13.29
11/08 06:00      0.00    489.94    169428    459.47      3855         0     42.80    347.80      5.90     83.22      0.00     13.51     13.29
11/08 07:00      0.00    489.96    169655    459.69      5920      8950     42.66    343.10      7.60     82.21      0.00     13.51     13.29
11/08 08:00      0.00    489.95    169541    459.57     10572      8950     41.90    346.50      6.60     82.07     24.50     13.51     13.29
11/08 09:00      0.00    489.96    169655    459.43     13536      8950     42.19    344.60      5.80     80.06     90.10     13.51     13.29
11/08 10:00      0.00    490.06    170838    459.41     13385      8950     43.27    349.90      5.00     77.00    113.00     13.51     13.29
11/08 11:00      0.00    490.10    171323    459.50     14941      8950     44.58     10.30      3.80     73.08    154.10     13.51     13.29
11/08 12:00      0.00    490.07    170959    459.68     15652     15350     46.69    357.70      3.80     68.96    329.40     13.52     13.29
11/08 13:00      0.00    490.07    170959    459.67     13189     15350     47.91      0.80      4.20     66.40    252.20     13.51     13.05
11/08 14:00      0.00    490.06    170838    459.65     11039     15350     49.05      5.90      3.40     64.20    233.90     13.52     13.29
11/08 15:00      0.00    490.03    170474    459.60      9718     15350     49.96     21.80      3.50     61.87    252.10     13.51     13.29
11/08 16:00      0.00    489.95    169541    459.61      8342     15350     51.17     73.40      4.50     56.34    248.20     13.52     13.29
11/08 17:00      0.00    489.87    168632    459.67      7811     15350     50.97     71.20      2.40     56.38     70.10     13.51     13.29
11/08 18:00      0.00    489.82    168063    459.70      8691     15350     47.91     67.50      1.30     65.82      0.00     13.51     13.29
11/08 19:00      0.00    489.79    167722    459.67     11223     15350     42.58     47.70      1.20     79.21      0.00     13.51     13.29
11/08 20:00      0.00    489.79    167722    459.62     13149     15350     40.19     58.80      0.70     86.99      0.00     13.51     13.29
11/08 21:00      0.00    489.80    167836    459.66     12685     15350     38.73     59.80      1.90     91.89      0.00     13.51     13.29
11/08 22:00      0.00    489.79    167722    459.69     10441     15350     41.47    349.80      4.00     98.04      0.00     13.51     13.29
11/08 23:00      0.00    489.73    167040    459.72      7371     15350     41.00     29.40      2.00     96.18      0.00     13.51     13.29